Time;durP1;ratioP1;P1;durP2;ratioP2;P2;SDS_P1;SDS_P2;PMS_P1;PMS_P2;Temp;Humidity;BMP_temperature;BMP_pressure;BME280_temperature;BME280_humidity;BME280_pressure;Samples;Min_cycle;Max_cycle;Signal;HPM_P1;HPM_P2
2023/03/06 00:01:48;;;;;;;61.33;28.43;;;6.90;99.90;;;;;;4895805;29;20083;-92
2023/03/06 00:04:21;;;;;;;54.00;28.27;;;6.80;99.90;;;;;;4895388;29;20072;-93
2023/03/06 00:07:19;;;;;;;58.47;28.25;;;6.70;99.90;;;;;;4910356;29;20040;-92
2023/03/06 00:10:01;;;;;;;55.45;27.88;;;6.60;99.90;;;;;;4907684;23;20054;-92
2023/03/06 00:12:27;;;;;;;60.40;28.30;;;6.50;99.90;;;;;;4959770;28;20061;-90
2023/03/06 00:17:56;;;;;;;67.22;30.52;;;6.40;99.90;;;;;;5084742;23;20058;-91
2023/03/06 00:20:49;;;;;;;61.15;29.38;;;6.40;99.90;;;;;;4961149;28;20042;-92
2023/03/06 00:23:15;;;;;;;65.43;29.88;;;6.30;99.90;;;;;;4942264;28;20118;-91
2023/03/06 00:25:43;;;;;;;62.90;29.90;;;6.30;99.90;;;;;;4942906;28;20027;-91
2023/03/06 00:28:11;;;;;;;55.17;26.83;;;6.30;99.90;;;;;;4942783;28;20035;-92
2023/03/06 00:30:37;;;;;;;54.88;25.33;;;6.20;99.90;;;;;;4959765;28;20038;-93
2023/03/06 00:34:10;;;;;;;58.53;26.77;;;6.20;99.90;;;;;;4945525;29;20093;-93
2023/03/06 00:37:17;;;;;;;;;;;;;;;;;;;;;
2023/03/06 00:40:25;;;;;;;69.55;29.98;;;6.20;99.90;;;;;;4903119;29;20060;-91
2023/03/06 00:43:25;;;;;;;;;;;;;;;;;;;;;
2023/03/06 00:52:41;;;;;;;57.50;25.08;;;6.00;99.90;;;;;;4817744;29;20076;-93
2023/03/06 01:07:26;;;;;;;;;;;;;;;;;;;;;
2023/03/06 01:10:09;;;;;;;61.63;26.50;;;5.80;99.90;;;;;;4961672;28;20058;-93
2023/03/06 01:13:02;;;;;;;65.47;27.52;;;5.80;99.90;;;;;;4951265;28;20043;-93
2023/03/06 01:15:48;;;;;;;;;;;;;;;;;;;;;
2023/03/06 01:18:23;;;;;;;49.30;25.45;;;5.80;99.90;;;;;;4834466;29;20049;-93
2023/03/06 01:20:52;;;;;;;64.47;27.05;;;5.70;99.90;;;;;;4847382;29;20045;-92
2023/03/06 01:23:21;;;;;;;61.42;27.48;;;5.70;99.90;;;;;;4818438;29;20042;-92
2023/03/06 01:26:17;;;;;;;56.00;25.85;;;5.70;99.90;;;;;;4819911;29;20102;-93
2023/03/06 01:29:28;;;;;;;;;;;;;;;;;;;;;
2023/03/06 01:32:35;;;;;;;;;;;;;;;;;;;;;
2023/03/06 01:35:28;;;;;;;53.90;25.25;;;5.70;99.90;;;;;;4832624;29;20462;-92
2023/03/06 01:38:29;;;;;;;58.90;26.52;;;5.70;99.90;;;;;;4832336;29;20069;-93
2023/03/06 01:48:42;;;;;;;;;;;;;;;;;;;;;
2023/03/06 03:24:38;;;;;;;44.10;20.80;;;4.80;99.90;;;;;;4746799;30;20037;-93
2023/03/06 03:28:02;;;;;;;43.88;20.80;;;4.70;99.90;;;;;;4734854;30;20032;-92
2023/03/06 03:30:55;;;;;;;50.33;21.75;;;4.70;99.90;;;;;;4693027;30;20076;-92
2023/03/06 03:34:20;;;;;;;;;;;;;;;;;;;;;
2023/03/06 03:37:22;;;;;;;;;;;;;;;;;;;;;
2023/03/06 03:40:11;;;;;;;46.75;21.88;;;4.70;99.90;;;;;;4640906;31;20470;-93
2023/03/06 03:42:41;;;;;;;48.85;22.30;;;4.70;99.90;;;;;;4627028;31;20142;-93
2023/03/06 03:49:54;;;;;;;;;;;;;;;;;;;;;
2023/03/06 04:08:01;;;;;;;42.60;20.83;;;4.50;99.90;;;;;;5065733;23;20058;-93
2023/03/06 04:40:18;;;;;;;40.40;17.77;;;4.60;99.90;;;;;;5400721;23;19940;-92
2023/03/06 04:46:54;;;;;;;31.55;14.40;;;4.70;99.90;;;;;;5113609;23;20062;-92
2023/03/06 04:57:19;;;;;;;34.33;13.70;;;4.90;99.90;;;;;;5092151;23;20090;-93
2023/03/06 05:00:19;;;;;;;29.83;13.52;;;4.90;99.90;;;;;;5010918;23;20105;-93
2023/03/06 05:10:38;;;;;;;29.08;13.98;;;5.30;99.90;;;;;;4971521;28;20049;-92
2023/03/06 05:13:31;;;;;;;28.52;13.82;;;5.20;99.90;;;;;;4972665;28;20110;-93
2023/03/06 05:16:31;;;;;;;23.45;12.60;;;5.10;99.90;;;;;;4969730;28;20480;-92
2023/03/06 05:21:49;;;;;;;23.30;12.73;;;4.50;99.90;;;;;;5716748;23;20083;-93
2023/03/06 05:24:25;;;;;;;29.13;12.80;;;4.40;99.90;;;;;;5002236;28;20030;-92
2023/03/06 05:27:01;;;;;;;24.00;12.10;;;4.40;99.90;;;;;;4988089;28;20035;-92
2023/03/06 05:36:02;;;;;;;24.85;13.38;;;4.40;99.90;;;;;;5128092;23;20073;-93
2023/03/06 05:38:47;;;;;;;25.33;13.53;;;4.50;99.90;;;;;;4933251;28;20034;-92
2023/03/06 05:41:14;;;;;;;28.23;13.18;;;4.50;99.90;;;;;;4964524;28;20035;-92
2023/03/06 05:43:45;;;;;;;24.95;13.23;;;4.60;99.90;;;;;;4949605;28;20019;-93
2023/03/06 05:46:12;;;;;;;27.45;13.45;;;4.60;99.90;;;;;;4964096;28;20027;-93
2023/03/06 05:48:55;;;;;;;;;;;;;;;;;;;;;
2023/03/06 05:51:22;;;;;;;29.38;13.50;;;4.90;99.90;;;;;;4964260;28;20038;-92
2023/03/06 05:53:52;;;;;;;28.48;12.88;;;5.10;99.90;;;;;;4948866;28;20035;-93
2023/03/06 05:56:20;;;;;;;23.38;11.90;;;5.20;99.90;;;;;;4948321;28;20035;-93
2023/03/06 05:58:55;;;;;;;20.77;12.82;;;5.40;99.90;;;;;;4969944;28;20077;-93
2023/03/06 06:01:32;;;;;;;22.63;12.95;;;5.70;99.90;;;;;;4957748;28;20035;-94
2023/03/06 06:04:17;;;;;;;25.40;14.32;;;5.80;99.90;;;;;;4952611;28;20035;-92
2023/03/06 06:06:56;;;;;;;24.02;12.50;;;6.00;99.90;;;;;;4953119;28;20039;-92
2023/03/06 06:09:29;;;;;;;22.05;12.85;;;6.30;99.90;;;;;;4950300;28;20035;-93
2023/03/06 06:12:23;;;;;;;18.10;11.55;;;6.80;99.90;;;;;;4961430;28;20038;-94
2023/03/06 06:16:03;;;;;;;;;;;;;;;;;;;;;
2023/03/06 06:49:28;;;;;;;;;;;;;;;;;;;;;
2023/03/06 07:26:42;;;;;;;23.13;21.25;;;15.60;99.90;;;;;;4987572;28;20061;-93
2023/03/06 07:33:54;;;;;;;;;;;;;;;;;;;;;
2023/03/06 07:37:46;;;;;;;;;;;;;;;;;;;;;
2023/03/06 07:41:22;;;;;;;;;;;;;;;;;;;;;
2023/03/06 07:47:26;;;;;;;24.10;21.98;;;17.40;99.90;;;;;;5151177;23;20550;-93
2023/03/06 07:50:38;;;;;;;23.80;21.65;;;17.30;99.90;;;;;;5001866;28;20038;-93
2023/03/06 07:54:34;;;;;;;21.90;20.30;;;17.50;99.90;;;;;;4857717;29;20073;-93
2023/03/06 07:57:29;;;;;;;22.15;20.40;;;17.70;99.90;;;;;;4816035;29;20122;-93
2023/03/06 08:00:40;;;;;;;22.75;20.98;;;17.80;99.90;;;;;;4816649;29;20068;-93
2023/03/06 08:03:59;;;;;;;;;;;;;;;;;;;;;
2023/03/06 08:07:21;;;;;;;22.95;20.77;;;17.90;99.90;;;;;;4729211;30;20045;-93
2023/03/06 08:14:10;;;;;;;;;;;;;;;;;;;;;
2023/03/06 08:17:47;;;;;;;;;;;;;;;;;;;;;
2023/03/06 08:20:37;;;;;;;24.17;21.77;;;17.60;99.90;;;;;;4721210;30;20197;-92
2023/03/06 08:23:05;;;;;;;22.67;21.00;;;17.50;99.90;;;;;;4715802;30;20041;-93
2023/03/06 09:03:29;;;;;;;22.38;20.40;;;16.70;99.90;;;;;;5664438;23;20055;-92
2023/03/06 09:38:27;;;;;;;21.15;19.45;;;17.30;99.90;;;;;;5613999;23;20071;-92
2023/03/06 09:41:06;;;;;;;21.38;19.60;;;17.40;99.90;;;;;;4926341;29;20028;-87
2023/03/06 09:43:52;;;;;;;22.17;20.38;;;17.40;99.90;;;;;;4926004;29;20039;-86
2023/03/06 09:46:40;;;;;;;21.75;19.98;;;17.20;99.90;;;;;;4925382;29;20023;-83
2023/03/06 09:49:29;;;;;;;21.88;20.17;;;17.20;99.90;;;;;;4905979;29;20033;-75
2023/03/06 09:52:04;;;;;;;21.75;20.13;;;17.20;99.90;;;;;;4922440;29;20482;-75
2023/03/06 09:54:43;;;;;;;22.00;20.40;;;17.50;99.90;;;;;;4921227;29;20490;-75
2023/03/06 09:57:19;;;;;;;22.70;20.85;;;17.70;99.90;;;;;;4922909;29;20036;-74
2023/03/06 09:59:53;;;;;;;23.27;21.20;;;17.50;99.90;;;;;;4922218;29;20047;-92
2023/03/06 10:02:45;;;;;;;22.33;20.83;;;17.30;99.90;;;;;;4905248;29;20028;-90
2023/03/06 10:05:39;;;;;;;22.50;20.40;;;17.10;99.90;;;;;;4888657;29;20032;-92
2023/03/06 10:08:20;;;;;;;22.05;20.23;;;16.90;99.90;;;;;;4898566;29;20127;-89
2023/03/06 10:10:56;;;;;;;23.40;21.58;;;16.70;99.90;;;;;;4903919;29;20119;-90
2023/03/06 10:13:33;;;;;;;23.38;21.48;;;16.80;99.90;;;;;;4903969;29;20051;-89
2023/03/06 10:16:17;;;;;;;22.00;20.40;;;17.20;99.90;;;;;;4904262;29;20550;-90
2023/03/06 10:18:44;;;;;;;;;;;17.30;99.90;;;;;;4904651;29;20036;-91
2023/03/06 10:21:34;;;;;;;22.67;20.95;;;17.40;99.90;;;;;;4888259;29;19990;-90
2023/03/06 10:24:15;;;;;;;22.48;20.80;;;17.30;99.90;;;;;;4896260;29;20032;-92
2023/03/06 10:27:01;;;;;;;22.30;20.50;;;17.50;99.90;;;;;;4912902;29;20067;-92
2023/03/06 10:29:51;;;;;;;21.67;20.10;;;17.60;99.90;;;;;;4919518;29;20029;-89
2023/03/06 10:32:30;;;;;;;22.38;20.58;;;17.40;99.90;;;;;;4919218;29;20087;-91
2023/03/06 10:34:59;;;;;;;20.92;19.33;;;17.20;99.90;;;;;;4903827;29;20032;-91
2023/03/06 10:37:30;;;;;;;21.95;20.42;;;17.20;99.90;;;;;;4920256;29;20064;-91
2023/03/06 10:40:15;;;;;;;22.38;20.70;;;17.30;99.90;;;;;;4902072;29;20439;-92
2023/03/06 10:42:41;;;;;;;21.95;20.35;;;17.30;99.90;;;;;;4916356;29;20119;-92
2023/03/06 10:45:14;;;;;;;21.98;20.52;;;17.10;99.90;;;;;;4915788;29;20035;-91
2023/03/06 10:47:59;;;;;;;21.85;20.48;;;17.20;99.90;;;;;;4917270;29;20035;-86
2023/03/06 12:26:35;;;;;;;24.27;22.38;;;18.50;99.90;;;;;;5782807;23;20056;-92
2023/03/06 12:29:14;;;;;;;23.83;21.97;;;18.30;99.90;;;;;;4886171;29;20093;-91
2023/03/06 12:32:03;;;;;;;24.65;22.88;;;18.50;99.90;;;;;;4885865;29;20040;-88
2023/03/06 12:34:47;;;;;;;24.17;22.20;;;18.90;99.90;;;;;;4852425;29;20037;-92
2023/03/06 12:37:35;;;;;;;25.10;23.20;;;18.90;99.90;;;;;;4867941;29;20483;-91
2023/03/06 12:40:13;;;;;;;24.70;22.75;;;18.80;99.90;;;;;;4867283;29;20084;-91
2023/03/06 12:43:05;;;;;;;24.90;22.67;;;18.60;99.90;;;;;;4867324;29;20036;-90
2023/03/06 12:45:39;;;;;;;24.02;22.17;;;18.40;99.90;;;;;;4866997;29;20032;-90
2023/03/06 12:48:25;;;;;;;24.90;22.58;;;18.20;99.90;;;;;;4867692;29;20044;-90
2023/03/06 12:50:52;;;;;;;24.35;22.13;;;17.90;99.90;;;;;;4867097;29;20065;-90
2023/03/06 12:53:26;;;;;;;23.63;21.75;;;17.90;99.90;;;;;;4866793;29;20075;-92
2023/03/06 12:55:53;;;;;;;23.48;21.85;;;17.40;99.90;;;;;;4866867;29;20075;-90
2023/03/06 12:58:29;;;;;;;23.75;21.88;;;17.40;99.90;;;;;;4867054;29;20100;-91
2023/03/06 13:01:06;;;;;;;23.58;21.85;;;17.50;99.90;;;;;;4863944;29;20060;-92
2023/03/06 13:04:19;;;;;;;23.98;22.10;;;17.90;99.90;;;;;;4848347;29;20037;-91
2023/03/06 13:07:09;;;;;;;23.67;21.80;;;17.80;99.90;;;;;;4879364;29;20066;-88
2023/03/06 13:10:06;;;;;;;24.27;21.77;;;17.50;99.90;;;;;;4870574;29;20033;-89
2023/03/06 13:12:39;;;;;;;23.20;21.35;;;17.40;99.90;;;;;;4867564;29;20096;-90
2023/03/06 13:15:41;;;;;;;23.70;21.38;;;17.50;99.90;;;;;;4867654;29;20029;-91
2023/03/06 13:18:23;;;;;;;22.83;21.27;;;17.70;99.90;;;;;;4882949;29;20060;-90
2023/03/06 13:20:52;;;;;;;24.02;22.00;;;17.90;99.90;;;;;;4852378;29;20116;-90
2023/03/06 13:23:37;;;;;;;22.75;20.83;;;17.40;99.90;;;;;;4867276;29;20076;-91
2023/03/06 13:26:30;;;;;;;22.90;21.17;;;17.20;99.90;;;;;;4863685;29;20041;-90
2023/03/06 13:28:57;;;;;;;22.85;21.25;;;17.20;99.90;;;;;;4888905;29;20035;-91
2023/03/06 13:31:35;;;;;;;22.88;21.33;;;16.90;99.90;;;;;;4907874;29;20030;-88
2023/03/06 13:34:03;;;;;;;22.38;20.67;;;17.20;99.90;;;;;;4907974;29;20039;-88
2023/03/06 13:36:34;;;;;;;22.88;21.02;;;17.10;99.90;;;;;;4907743;29;20153;-88
2023/03/06 13:39:03;;;;;;;22.48;20.88;;;16.80;99.90;;;;;;4907839;29;20114;-88
2023/03/06 13:41:29;;;;;;;23.30;21.20;;;16.50;99.90;;;;;;4907681;29;20046;-88
2023/03/06 13:43:58;;;;;;;22.80;21.10;;;16.50;99.90;;;;;;4907460;29;20086;-88
2023/03/06 13:46:27;;;;;;;22.40;20.80;;;16.30;99.90;;;;;;4888322;29;20024;-91
2023/03/06 13:49:12;;;;;;;23.48;21.38;;;16.30;99.90;;;;;;4901221;29;20088;-92
2023/03/06 13:52:21;;;;;;;21.60;19.70;;;16.60;99.90;;;;;;4901164;29;20033;-89
2023/03/06 13:55:37;;;;;;;21.30;19.70;;;16.30;99.90;;;;;;4901076;29;20044;-89
2023/03/06 13:58:18;;;;;;;21.95;20.05;;;16.20;99.90;;;;;;4793350;29;20057;-89
2023/03/06 14:00:56;;;;;;;21.15;19.27;;;16.30;99.90;;;;;;4792977;29;20580;-91
2023/03/06 14:03:37;;;;;;;20.73;18.95;;;16.20;99.90;;;;;;4793007;29;20043;-89
2023/03/06 14:06:40;;;;;;;21.92;19.98;;;16.20;99.90;;;;;;4793177;29;20114;-89
2023/03/06 14:09:21;;;;;;;21.80;19.92;;;16.30;99.90;;;;;;4793353;29;20208;-89
2023/03/06 14:11:56;;;;;;;21.13;19.33;;;16.00;99.90;;;;;;4778635;29;20405;-90
2023/03/06 14:14:36;;;;;;;20.73;19.13;;;16.00;99.90;;;;;;4811426;29;20179;-89
2023/03/06 14:20:49;;;;;;;25.23;21.08;;;16.00;99.90;;;;;;4781992;30;20035;-90
2023/03/06 14:23:41;;;;;;;24.77;22.30;;;16.10;99.90;;;;;;4790944;29;20097;-87
2023/03/06 14:26:14;;;;;;;22.35;20.50;;;16.10;99.90;;;;;;4762036;30;20055;-87
2023/03/06 14:28:52;;;;;;;21.02;19.50;;;15.80;99.90;;;;;;4807113;29;20087;-87
2023/03/06 14:31:31;;;;;;;23.52;21.30;;;15.70;99.90;;;;;;4831163;29;20046;-86
2023/03/06 14:34:00;;;;;;;22.40;20.48;;;15.80;99.90;;;;;;4830992;29;20046;-88
2023/03/06 14:36:44;;;;;;;22.73;20.55;;;15.60;99.90;;;;;;4815866;29;20055;-87
2023/03/06 14:39:22;;;;;;;20.95;19.17;;;15.60;99.90;;;;;;4831008;29;20045;-89
2023/03/06 14:41:49;;;;;;;21.50;19.65;;;15.60;99.90;;;;;;4816174;29;20068;-89
2023/03/06 14:44:18;;;;;;;21.50;19.48;;;15.30;99.90;;;;;;4814945;29;20041;-80
2023/03/06 14:46:47;;;;;;;21.85;19.92;;;15.10;99.90;;;;;;4840359;29;20041;-80
2023/03/06 14:49:15;;;;;;;21.58;19.77;;;15.00;99.90;;;;;;4837885;29;20023;-80
2023/03/06 14:51:45;;;;;;;23.10;20.55;;;15.00;99.90;;;;;;4819135;29;20042;-81
2023/03/06 14:54:18;;;;;;;21.90;19.73;;;15.00;99.90;;;;;;4813643;29;20063;-78
2023/03/06 14:56:49;;;;;;;21.80;20.17;;;15.10;99.90;;;;;;4850324;29;20473;-77
2023/03/06 14:59:29;;;;;;;26.98;24.20;;;15.00;99.90;;;;;;4890134;29;20289;-89
2023/03/06 15:02:16;;;;;;;27.25;24.52;;;15.00;99.90;;;;;;4895857;29;20024;-93
2023/03/06 15:04:59;;;;;;;32.67;22.98;;;14.90;99.90;;;;;;4902259;29;20495;-93
2023/03/06 15:13:26;;;;;;;41.50;31.40;;;14.90;99.90;;;;;;5689119;23;20035;-91
2023/03/06 15:15:59;;;;;;;29.23;26.23;;;14.90;99.90;;;;;;4906216;29;20034;-91
2023/03/06 15:18:37;;;;;;;25.67;23.05;;;14.80;99.90;;;;;;4906021;29;20063;-91
2023/03/06 15:21:25;;;;;;;26.65;23.88;;;14.80;99.90;;;;;;4905996;29;20459;-90
2023/03/06 15:23:54;;;;;;;29.15;25.98;;;14.90;99.90;;;;;;4902879;29;20032;-92
2023/03/06 15:26:24;;;;;;;28.33;25.60;;;14.90;99.90;;;;;;4887055;29;20067;-91
2023/03/06 15:29:15;;;;;;;24.65;22.45;;;14.80;99.90;;;;;;4887077;29;20039;-91
2023/03/06 15:31:44;;;;;;;24.25;21.38;;;14.80;99.90;;;;;;4885998;29;20025;-90
2023/03/06 15:34:22;;;;;;;22.70;20.33;;;14.80;99.90;;;;;;4902511;29;20123;-91
2023/03/06 15:36:53;;;;;;;22.15;20.27;;;14.70;99.90;;;;;;4887322;29;20024;-91
2023/03/06 15:39:32;;;;;;;22.48;20.60;;;14.60;99.90;;;;;;4887668;29;20537;-90
2023/03/06 15:42:01;;;;;;;22.35;20.40;;;14.60;99.90;;;;;;4898231;29;20024;-91
2023/03/06 15:44:31;;;;;;;22.73;20.50;;;14.50;99.90;;;;;;4889246;29;20545;-91
2023/03/06 15:46:58;;;;;;;23.05;21.10;;;14.50;99.90;;;;;;4902344;29;20036;-92
2023/03/06 15:49:25;;;;;;;22.73;20.70;;;14.40;99.90;;;;;;4902465;29;20031;-90
2023/03/06 15:51:51;;;;;;;21.92;20.13;;;14.30;99.90;;;;;;4886532;29;20044;-91
2023/03/06 15:54:18;;;;;;;22.00;20.30;;;14.30;99.90;;;;;;4886685;29;20028;-90
2023/03/06 15:56:47;;;;;;;26.00;21.15;;;14.20;99.90;;;;;;4902355;29;20050;-92
2023/03/06 15:59:25;;;;;;;24.55;21.98;;;14.20;99.90;;;;;;4886924;29;20028;-90
2023/03/06 16:01:52;;;;;;;23.83;21.67;;;14.10;99.90;;;;;;4886567;29;20562;-90
2023/03/06 16:04:19;;;;;;;23.92;21.48;;;14.10;99.90;;;;;;4903343;29;20489;-90
2023/03/06 16:06:45;;;;;;;23.90;22.05;;;14.10;99.90;;;;;;4886872;29;20036;-91
2023/03/06 16:09:13;;;;;;;24.00;21.75;;;14.00;99.90;;;;;;4901802;29;20128;-92
2023/03/06 16:11:46;;;;;;;25.25;22.40;;;13.90;99.90;;;;;;4901767;29;20032;-90
2023/03/06 16:14:22;;;;;;;23.90;21.73;;;13.90;99.90;;;;;;4879240;29;20056;-90
2023/03/06 16:17:11;;;;;;;24.40;22.15;;;13.80;99.90;;;;;;4848606;29;20071;-91
2023/03/06 16:19:39;;;;;;;23.83;21.88;;;13.70;99.90;;;;;;4863568;29;20033;-91
2023/03/06 16:22:05;;;;;;;30.85;24.45;;;13.70;99.90;;;;;;4848503;29;20032;-92
2023/03/06 16:24:36;;;;;;;30.70;24.17;;;13.60;99.90;;;;;;4848449;29;20120;-91
2023/03/06 16:27:03;;;;;;;27.58;24.85;;;13.50;99.90;;;;;;4864270;29;20041;-90
2023/03/06 16:29:29;;;;;;;25.52;23.10;;;13.50;99.90;;;;;;4848327;29;20033;-91
2023/03/06 16:31:57;;;;;;;26.27;23.60;;;13.40;99.90;;;;;;4847986;29;20432;-91
2023/03/06 16:34:24;;;;;;;26.52;23.70;;;13.40;99.90;;;;;;4865281;29;20036;-90
2023/03/06 16:36:51;;;;;;;26.55;23.42;;;13.30;99.90;;;;;;4868382;29;20045;-93
2023/03/06 16:39:21;;;;;;;26.88;23.73;;;13.30;99.90;;;;;;4868652;29;20045;-92
2023/03/06 16:41:50;;;;;;;28.63;25.70;;;13.20;99.90;;;;;;4852108;29;20029;-90
2023/03/06 16:44:18;;;;;;;31.05;25.85;;;13.20;99.90;;;;;;4866630;29;20537;-90
2023/03/06 16:46:47;;;;;;;28.83;25.40;;;13.10;99.90;;;;;;4864544;29;20534;-91
2023/03/06 16:49:19;;;;;;;29.33;26.15;;;13.10;99.90;;;;;;4851175;29;20033;-93
2023/03/06 16:51:46;;;;;;;27.52;24.65;;;13.10;99.90;;;;;;4886792;29;20036;-89
2023/03/06 16:54:15;;;;;;;27.45;24.58;;;13.00;99.90;;;;;;4899218;29;20064;-91
2023/03/06 16:56:43;;;;;;;28.95;25.83;;;13.00;99.90;;;;;;4884999;29;20454;-90
2023/03/06 16:59:11;;;;;;;35.58;31.38;;;12.90;99.90;;;;;;4899936;29;20032;-90
2023/03/06 17:01:41;;;;;;;36.40;28.33;;;12.90;99.90;;;;;;4883626;29;20052;-89
2023/03/06 17:04:08;;;;;;;28.35;25.42;;;12.90;99.90;;;;;;4886744;29;20028;-90
2023/03/06 17:06:34;;;;;;;40.90;30.52;;;12.90;99.90;;;;;;4901265;29;20036;-89
2023/03/06 17:09:04;;;;;;;40.38;32.15;;;12.90;99.90;;;;;;4901524;29;20039;-90
2023/03/06 17:11:31;;;;;;;34.88;29.02;;;12.80;99.90;;;;;;4901573;29;20040;-88
2023/03/06 17:14:05;;;;;;;49.88;33.35;;;12.80;99.90;;;;;;4898005;29;20072;-92
2023/03/06 17:16:32;;;;;;;54.20;39.25;;;12.80;99.90;;;;;;4898157;29;20060;-90
2023/03/06 17:19:02;;;;;;;48.10;35.38;;;12.70;99.90;;;;;;4887449;29;20040;-92
2023/03/06 17:21:29;;;;;;;42.53;30.30;;;12.70;99.90;;;;;;4893836;29;20040;-91
2023/03/06 17:23:56;;;;;;;40.03;30.02;;;12.70;99.90;;;;;;4863840;29;20025;-91
2023/03/06 17:26:22;;;;;;;38.35;28.50;;;12.70;99.90;;;;;;4861190;29;20034;-92
2023/03/06 17:28:49;;;;;;;32.13;26.95;;;12.70;99.90;;;;;;4862709;29;20036;-91
2023/03/06 17:31:19;;;;;;;37.00;27.05;;;12.60;99.90;;;;;;4861438;29;20491;-91
2023/03/06 17:33:46;;;;;;;30.02;26.17;;;12.60;99.90;;;;;;4845245;29;20038;-90
2023/03/06 17:36:15;;;;;;;30.58;25.98;;;12.50;99.90;;;;;;4860560;29;20044;-91
2023/03/06 17:38:42;;;;;;;30.23;24.63;;;12.50;99.90;;;;;;4860995;29;20034;-91
2023/03/06 17:41:10;;;;;;;30.48;25.58;;;12.50;99.90;;;;;;4860253;29;20090;-91
2023/03/06 17:43:38;;;;;;;35.22;24.10;;;12.50;99.90;;;;;;4860391;29;20496;-92
2023/03/06 17:46:12;;;;;;;31.08;24.83;;;12.40;99.90;;;;;;4860502;29;20061;-91
2023/03/06 17:48:39;;;;;;;;;;;12.40;99.90;;;;;;4893563;29;20016;-92
2023/03/06 17:51:06;;;;;;;26.92;21.95;;;12.30;99.90;;;;;;4910432;29;19919;-92
2023/03/06 17:53:33;;;;;;;26.98;22.45;;;12.30;99.90;;;;;;4897681;29;20100;-92
2023/03/06 17:56:01;;;;;;;23.58;21.00;;;12.30;99.90;;;;;;4884424;29;20031;-90
2023/03/06 17:58:27;;;;;;;23.27;20.88;;;12.30;99.90;;;;;;4901230;29;20032;-91
2023/03/06 18:00:54;;;;;;;35.08;23.80;;;12.30;99.90;;;;;;4885680;29;20514;-92
2023/03/06 18:03:21;;;;;;;30.05;23.73;;;12.30;99.90;;;;;;4889652;29;20032;-92
2023/03/06 18:06:02;;;;;;;37.88;26.85;;;12.30;99.90;;;;;;4885857;29;20085;-90
2023/03/06 18:08:29;;;;;;;28.23;22.92;;;12.20;99.90;;;;;;4885542;29;20035;-91
2023/03/06 18:11:02;;;;;;;24.27;20.08;;;12.20;99.90;;;;;;4901764;29;20119;-91
2023/03/06 18:13:31;;;;;;;24.20;19.63;;;12.20;99.90;;;;;;4907879;29;20060;-91
2023/03/06 18:15:58;;;;;;;26.42;18.92;;;12.20;99.90;;;;;;4905800;29;20076;-90
2023/03/06 18:18:25;;;;;;;24.90;19.20;;;12.20;99.90;;;;;;4905358;29;20043;-91
2023/03/06 18:20:52;;;;;;;31.05;19.35;;;12.20;99.90;;;;;;4904037;29;20020;-91
2023/03/06 18:23:19;;;;;;;29.33;19.55;;;12.20;99.90;;;;;;4908065;29;20545;-91
2023/03/06 18:25:46;;;;;;;24.67;18.60;;;12.10;99.90;;;;;;4895418;29;20051;-91
2023/03/06 18:28:13;;;;;;;27.75;18.85;;;12.10;99.90;;;;;;4900698;29;20376;-92
2023/03/06 18:30:42;;;;;;;20.55;17.80;;;12.10;99.90;;;;;;4884077;29;20028;-92
2023/03/06 18:33:09;;;;;;;31.55;19.75;;;12.10;99.90;;;;;;4885644;29;20052;-91
2023/03/06 18:35:42;;;;;;;23.80;17.90;;;12.00;99.90;;;;;;4905804;29;20029;-92
2023/03/06 18:38:09;;;;;;;34.00;23.00;;;12.00;99.90;;;;;;4890159;29;20036;-92
2023/03/06 18:40:36;;;;;;;27.45;17.92;;;12.00;99.90;;;;;;4885751;29;20029;-91
2023/03/06 18:43:03;;;;;;;25.20;18.02;;;12.00;99.90;;;;;;4885331;29;20066;-90
2023/03/06 18:45:29;;;;;;;22.75;16.35;;;11.90;99.90;;;;;;4885016;29;20056;-92
2023/03/06 18:47:56;;;;;;;20.77;16.45;;;11.90;99.90;;;;;;4885133;29;20037;-91
2023/03/06 18:50:22;;;;;;;22.88;15.93;;;11.90;99.90;;;;;;4900331;29;20025;-91
2023/03/06 18:52:49;;;;;;;18.85;13.98;;;11.80;99.90;;;;;;4886046;29;20055;-90
2023/03/06 18:55:15;;;;;;;25.83;15.25;;;11.80;99.90;;;;;;4917604;29;20025;-90
2023/03/06 18:57:42;;;;;;;18.33;14.05;;;11.80;99.90;;;;;;5356862;23;20132;-93
2023/03/06 19:00:09;;;;;;;16.23;13.18;;;11.70;99.90;;;;;;4911701;29;20047;-92
2023/03/06 19:02:39;;;;;;;19.48;13.45;;;11.60;99.90;;;;;;4888594;29;20032;-92
2023/03/06 19:05:06;;;;;;;16.45;13.27;;;11.60;99.90;;;;;;4904032;29;20028;-91
2023/03/06 19:07:32;;;;;;;18.23;12.98;;;11.60;99.90;;;;;;4890315;29;20028;-92
2023/03/06 19:09:58;;;;;;;15.95;13.48;;;11.50;99.90;;;;;;4904349;29;20028;-91
2023/03/06 19:12:25;;;;;;;17.67;12.95;;;11.50;99.90;;;;;;4888393;29;20040;-91
2023/03/06 19:14:52;;;;;;;21.48;14.60;;;11.50;99.90;;;;;;4904294;29;20438;-92
2023/03/06 19:17:18;;;;;;;22.23;15.13;;;11.40;99.90;;;;;;4887845;29;20028;-92
2023/03/06 19:19:49;;;;;;;22.42;14.68;;;11.40;99.90;;;;;;4906438;29;20024;-92
2023/03/06 19:22:15;;;;;;;27.95;15.95;;;11.30;99.90;;;;;;4897590;29;20032;-93
2023/03/06 19:24:42;;;;;;;25.90;15.93;;;11.30;99.90;;;;;;4906164;29;20052;-93
2023/03/06 19:27:10;;;;;;;26.33;17.95;;;11.30;99.90;;;;;;4904445;29;20029;-92
2023/03/06 19:29:37;;;;;;;28.77;17.73;;;11.20;99.90;;;;;;4897171;29;20037;-93
2023/03/06 19:32:04;;;;;;;27.42;17.30;;;11.20;99.90;;;;;;4903234;29;20036;-92
2023/03/06 19:37:15;;;;;;;;;;;11.10;99.90;;;;;;5010473;23;20478;-92
2023/03/06 19:39:44;;;;;;;31.25;16.77;;;11.10;99.90;;;;;;4888076;29;19957;-93
2023/03/06 19:42:18;;;;;;;26.27;17.35;;;11.10;99.90;;;;;;4901305;29;20089;-92
2023/03/06 19:44:50;;;;;;;29.05;16.38;;;11.10;99.90;;;;;;4887721;29;20036;-92
2023/03/06 19:47:24;;;;;;;18.42;15.55;;;11.10;99.90;;;;;;4888629;29;20033;-92
2023/03/06 19:50:00;;;;;;;22.40;15.55;;;11.00;99.90;;;;;;4871813;29;20037;-93
2023/03/06 19:52:27;;;;;;;19.65;15.18;;;11.00;99.90;;;;;;4877173;29;20430;-93
2023/03/06 19:54:54;;;;;;;20.48;15.20;;;10.90;99.90;;;;;;4889472;29;20032;-93
2023/03/06 19:57:20;;;;;;;26.17;15.65;;;10.90;99.90;;;;;;4890474;29;20028;-92
2023/03/06 19:59:50;;;;;;;20.08;15.15;;;10.90;99.90;;;;;;4886962;29;20036;-93
2023/03/06 20:06:11;;;;;;;25.75;15.88;;;10.80;99.90;;;;;;4894211;29;20451;-73
2023/03/06 20:08:37;;;;;;;27.85;15.95;;;10.70;99.90;;;;;;4897822;29;20096;-73
2023/03/06 20:11:05;;;;;;;27.15;15.48;;;10.70;99.90;;;;;;4874339;29;20025;-74
2023/03/06 20:13:31;;;;;;;25.92;15.25;;;10.60;99.90;;;;;;4893135;29;20041;-74
2023/03/06 20:16:02;;;;;;;26.75;15.35;;;10.60;99.90;;;;;;4887967;29;20402;-74
2023/03/06 20:18:29;;;;;;;19.77;14.48;;;10.60;99.90;;;;;;4871541;29;20032;-74
2023/03/06 20:21:01;;;;;;;17.60;13.38;;;10.60;99.90;;;;;;4893929;29;20036;-74
2023/03/06 20:23:29;;;;;;;20.25;13.20;;;10.50;99.90;;;;;;4889504;29;20025;-74
2023/03/06 20:25:55;;;;;;;24.88;13.88;;;10.50;99.90;;;;;;4887404;29;20021;-74
2023/03/06 20:28:22;;;;;;;22.20;14.23;;;10.50;99.90;;;;;;4889768;29;20024;-74
2023/03/06 20:30:49;;;;;;;29.92;16.23;;;10.50;99.90;;;;;;4894884;29;20084;-74
2023/03/06 20:33:15;;;;;;;38.28;20.52;;;10.50;99.90;;;;;;4888002;29;20119;-73
2023/03/06 20:35:42;;;;;;;37.42;20.23;;;10.50;99.90;;;;;;4890015;29;20499;-74
2023/03/06 20:38:09;;;;;;;43.28;21.85;;;10.50;99.90;;;;;;4872366;29;20033;-74
2023/03/06 20:40:41;;;;;;;30.60;18.80;;;10.50;99.90;;;;;;4892328;29;20028;-73
2023/03/06 20:43:08;;;;;;;34.97;20.88;;;10.50;99.90;;;;;;4870353;29;20037;-74
2023/03/06 20:45:34;;;;;;;37.50;20.30;;;10.50;99.90;;;;;;4889463;29;20025;-74
2023/03/06 20:48:00;;;;;;;38.25;21.50;;;10.50;99.90;;;;;;4890820;29;20029;-74
2023/03/06 20:50:27;;;;;;;45.00;23.40;;;10.50;99.90;;;;;;4880439;29;20067;-74
2023/03/06 20:52:57;;;;;;;70.38;28.92;;;10.40;99.90;;;;;;4878272;29;20041;-73
2023/03/06 20:55:23;;;;;;;64.43;29.08;;;10.40;99.90;;;;;;4887510;29;20023;-74
2023/03/06 20:57:52;;;;;;;43.28;23.13;;;10.40;99.90;;;;;;4889876;29;20057;-73
2023/03/06 21:00:19;;;;;;;42.50;19.75;;;10.50;99.90;;;;;;4871649;29;20072;-73
2023/03/06 21:02:46;;;;;;;32.50;17.63;;;10.50;99.90;;;;;;4886946;29;20036;-73
2023/03/06 21:05:12;;;;;;;40.30;17.42;;;10.70;99.90;;;;;;4887484;29;20025;-74
2023/03/06 21:07:38;;;;;;;36.00;15.70;;;10.80;99.90;;;;;;4892210;29;20033;-73
2023/03/06 21:10:05;;;;;;;24.75;14.77;;;10.90;99.90;;;;;;4886859;29;20490;-74
2023/03/06 21:12:32;;;;;;;37.08;15.63;;;11.00;99.90;;;;;;4879960;29;20033;-74
2023/03/06 21:14:58;;;;;;;32.13;15.20;;;11.10;99.90;;;;;;4891526;29;20431;-74
2023/03/06 21:17:24;;;;;;;32.70;13.88;;;11.20;99.90;;;;;;4866923;29;20470;-74
2023/03/06 21:19:51;;;;;;;34.10;15.07;;;11.20;99.90;;;;;;4887393;29;20040;-74
2023/03/06 21:22:18;;;;;;;26.65;13.60;;;11.20;99.90;;;;;;4881261;29;20032;-74
2023/03/06 21:24:44;;;;;;;32.75;14.55;;;11.30;99.90;;;;;;4899855;29;20061;-74